sensor_id;sensor_type;location;lat;lon;timestamp;temperature;humidity
16907;DHT22;8570;52.380;4.654;2023-11-19T04:28:09;12.20;99.90
16907;DHT22;8570;52.380;4.654;2023-11-19T04:33:13;12.20;99.90
16907;DHT22;8570;52.380;4.654;2023-11-19T05:03:32;12.20;99.90
16907;DHT22;8570;52.380;4.654;2023-11-19T05:08:35;12.10;99.90
16907;DHT22;8570;52.380;4.654;2023-11-19T05:13:37;12.10;99.90
16907;DHT22;8570;52.380;4.654;2023-11-19T05:18:41;12.10;99.90
16907;DHT22;8570;52.380;4.654;2023-11-19T05:23:42;12.10;99.90
16907;DHT22;8570;52.380;4.654;2023-11-19T05:28:45;12.10;99.90
16907;DHT22;8570;52.380;4.654;2023-11-19T05:33:48;12.10;99.90
16907;DHT22;8570;52.380;4.654;2023-11-19T05:38:50;12.10;99.90
16907;DHT22;8570;52.380;4.654;2023-11-19T05:43:52;12.20;99.90
16907;DHT22;8570;52.380;4.654;2023-11-19T05:48:55;12.20;99.90
16907;DHT22;8570;52.380;4.654;2023-11-19T05:53:57;12.20;99.90
16907;DHT22;8570;52.380;4.654;2023-11-19T05:59:00;12.20;99.90
16907;DHT22;8570;52.380;4.654;2023-11-19T06:04:05;12.20;99.90
16907;DHT22;8570;52.380;4.654;2023-11-19T06:09:07;12.20;99.90
16907;DHT22;8570;52.380;4.654;2023-11-19T06:14:10;12.10;99.90
16907;DHT22;8570;52.380;4.654;2023-11-19T06:19:13;12.10;99.90
16907;DHT22;8570;52.380;4.654;2023-11-19T06:24:15;12.10;99.90
16907;DHT22;8570;52.380;4.654;2023-11-19T06:29:17;12.10;99.90
16907;DHT22;8570;52.380;4.654;2023-11-19T06:34:21;12.00;99.90
16907;DHT22;8570;52.380;4.654;2023-11-19T06:39:23;12.00;99.90
16907;DHT22;8570;52.380;4.654;2023-11-19T06:44:25;12.00;99.90
16907;DHT22;8570;52.380;4.654;2023-11-19T06:49:28;12.00;99.90
16907;DHT22;8570;52.380;4.654;2023-11-19T06:54:30;12.00;99.90
16907;DHT22;8570;52.380;4.654;2023-11-19T06:59:34;12.00;99.90
16907;DHT22;8570;52.380;4.654;2023-11-19T07:04:38;12.10;99.90
16907;DHT22;8570;52.380;4.654;2023-11-19T07:09:40;12.10;99.90
16907;DHT22;8570;52.380;4.654;2023-11-19T07:14:44;12.10;99.90
16907;DHT22;8570;52.380;4.654;2023-11-19T07:19:49;12.20;99.90
16907;DHT22;8570;52.380;4.654;2023-11-19T07:24:51;12.20;99.90
16907;DHT22;8570;52.380;4.654;2023-11-19T07:29:55;12.20;99.90
16907;DHT22;8570;52.380;4.654;2023-11-19T07:34:59;12.30;99.90
16907;DHT22;8570;52.380;4.654;2023-11-19T07:40:01;12.30;99.90
16907;DHT22;8570;52.380;4.654;2023-11-19T07:45:07;12.30;99.90
16907;DHT22;8570;52.380;4.654;2023-11-19T07:50:10;12.20;99.90
16907;DHT22;8570;52.380;4.654;2023-11-19T07:55:14;12.20;99.90
16907;DHT22;8570;52.380;4.654;2023-11-19T08:00:18;12.20;99.90
16907;DHT22;8570;52.380;4.654;2023-11-19T08:05:23;12.30;99.90
16907;DHT22;8570;52.380;4.654;2023-11-19T08:10:26;12.30;99.90
16907;DHT22;8570;52.380;4.654;2023-11-19T08:15:34;12.30;99.90
16907;DHT22;8570;52.380;4.654;2023-11-19T08:20:38;12.40;99.90
16907;DHT22;8570;52.380;4.654;2023-11-19T08:25:41;12.40;99.90
16907;DHT22;8570;52.380;4.654;2023-11-19T08:30:44;12.30;99.90
16907;DHT22;8570;52.380;4.654;2023-11-19T08:35:50;12.40;99.90
16907;DHT22;8570;52.380;4.654;2023-11-19T08:40:52;12.40;99.90
16907;DHT22;8570;52.380;4.654;2023-11-19T08:46:00;12.40;99.90
16907;DHT22;8570;52.380;4.654;2023-11-19T08:51:06;12.50;99.90
16907;DHT22;8570;52.380;4.654;2023-11-19T08:56:10;12.50;99.90
16907;DHT22;8570;52.380;4.654;2023-11-19T09:01:12;12.60;99.90
16907;DHT22;8570;52.380;4.654;2023-11-19T09:06:28;12.60;99.90
16907;DHT22;8570;52.380;4.654;2023-11-19T09:11:30;12.70;99.90
16907;DHT22;8570;52.380;4.654;2023-11-19T09:16:32;12.60;99.90
16907;DHT22;8570;52.380;4.654;2023-11-19T09:21:38;12.70;99.90
16907;DHT22;8570;52.380;4.654;2023-11-19T09:26:46;12.70;99.90
16907;DHT22;8570;52.380;4.654;2023-11-19T09:31:51;12.80;99.90
16907;DHT22;8570;52.380;4.654;2023-11-19T09:37:01;12.80;99.90
16907;DHT22;8570;52.380;4.654;2023-11-19T09:42:08;12.80;99.90
16907;DHT22;8570;52.380;4.654;2023-11-19T09:47:20;12.80;99.90
16907;DHT22;8570;52.380;4.654;2023-11-19T09:52:24;12.80;99.90
16907;DHT22;8570;52.380;4.654;2023-11-19T09:57:56;12.90;99.90
16907;DHT22;8570;52.380;4.654;2023-11-19T10:03:08;13.10;99.90
16907;DHT22;8570;52.380;4.654;2023-11-19T10:08:20;13.10;99.90
16907;DHT22;8570;52.380;4.654;2023-11-19T10:13:31;13.20;99.90
16907;DHT22;8570;52.380;4.654;2023-11-19T10:18:50;13.20;99.90
16907;DHT22;8570;52.380;4.654;2023-11-19T10:23:57;13.00;99.90
16907;DHT22;8570;52.380;4.654;2023-11-19T10:29:21;13.00;99.90
16907;DHT22;8570;52.380;4.654;2023-11-19T10:34:41;13.20;99.90
16907;DHT22;8570;52.380;4.654;2023-11-19T10:40:02;13.50;99.90
16907;DHT22;8570;52.380;4.654;2023-11-19T10:45:26;13.70;99.90
16907;DHT22;8570;52.380;4.654;2023-11-19T10:56:30;13.90;99.90
16907;DHT22;8570;52.380;4.654;2023-11-19T11:01:38;14.00;99.90
16907;DHT22;8570;52.380;4.654;2023-11-19T11:07:09;14.10;99.90
16907;DHT22;8570;52.380;4.654;2023-11-19T11:12:58;14.20;99.90
16907;DHT22;8570;52.380;4.654;2023-11-19T11:18:19;14.30;99.90
16907;DHT22;8570;52.380;4.654;2023-11-19T11:24:20;14.50;99.90
16907;DHT22;8570;52.380;4.654;2023-11-19T11:29:59;14.60;99.90
16907;DHT22;8570;52.380;4.654;2023-11-19T11:35:17;14.50;99.90
16907;DHT22;8570;52.380;4.654;2023-11-19T11:40:21;14.40;99.90
16907;DHT22;8570;52.380;4.654;2023-11-19T11:45:39;14.30;99.90
16907;DHT22;8570;52.380;4.654;2023-11-19T11:50:49;14.20;99.90
16907;DHT22;8570;52.380;4.654;2023-11-19T11:55:57;14.10;99.90
16907;DHT22;8570;52.380;4.654;2023-11-19T12:01:05;14.00;99.90
16907;DHT22;8570;52.380;4.654;2023-11-19T12:06:09;14.00;99.90
16907;DHT22;8570;52.380;4.654;2023-11-19T12:11:18;13.90;99.90
16907;DHT22;8570;52.380;4.654;2023-11-19T12:16:22;13.80;99.90
16907;DHT22;8570;52.380;4.654;2023-11-19T12:21:30;13.70;99.90
16907;DHT22;8570;52.380;4.654;2023-11-19T12:26:34;13.70;99.90
16907;DHT22;8570;52.380;4.654;2023-11-19T12:31:44;13.70;99.90
16907;DHT22;8570;52.380;4.654;2023-11-19T12:36:51;13.60;99.90
16907;DHT22;8570;52.380;4.654;2023-11-19T12:41:55;13.60;99.90
16907;DHT22;8570;52.380;4.654;2023-11-19T12:47:15;13.60;99.90
16907;DHT22;8570;52.380;4.654;2023-11-19T12:52:21;13.50;99.90
16907;DHT22;8570;52.380;4.654;2023-11-19T12:57:42;13.40;99.90
16907;DHT22;8570;52.380;4.654;2023-11-19T13:02:46;13.40;99.90
16907;DHT22;8570;52.380;4.654;2023-11-19T13:07:49;13.40;99.90
16907;DHT22;8570;52.380;4.654;2023-11-19T13:13:19;13.40;99.90
16907;DHT22;8570;52.380;4.654;2023-11-19T13:18:59;13.40;99.90
16907;DHT22;8570;52.380;4.654;2023-11-19T13:24:17;13.40;99.90
16907;DHT22;8570;52.380;4.654;2023-11-19T13:29:45;13.40;99.90
16907;DHT22;8570;52.380;4.654;2023-11-19T13:35:02;13.30;99.90
16907;DHT22;8570;52.380;4.654;2023-11-19T13:40:32;13.40;99.90
16907;DHT22;8570;52.380;4.654;2023-11-19T13:46:23;13.40;99.90
16907;DHT22;8570;52.380;4.654;2023-11-19T13:51:38;13.40;99.90
16907;DHT22;8570;52.380;4.654;2023-11-19T14:03:17;13.30;99.90
16907;DHT22;8570;52.380;4.654;2023-11-19T14:25:40;13.20;99.90
16907;DHT22;8570;52.380;4.654;2023-11-19T14:30:51;13.20;99.90
16907;DHT22;8570;52.380;4.654;2023-11-19T14:36:29;13.10;99.90
16907;DHT22;8570;52.380;4.654;2023-11-19T14:41:38;13.10;99.90
16907;DHT22;8570;52.380;4.654;2023-11-19T14:46:40;13.10;99.90
16907;DHT22;8570;52.380;4.654;2023-11-19T14:51:42;13.10;99.90
16907;DHT22;8570;52.380;4.654;2023-11-19T14:56:54;13.10;99.90
16907;DHT22;8570;52.380;4.654;2023-11-19T15:02:05;13.00;99.90
16907;DHT22;8570;52.380;4.654;2023-11-19T15:07:28;13.00;99.90
16907;DHT22;8570;52.380;4.654;2023-11-19T15:12:50;13.00;99.90
16907;DHT22;8570;52.380;4.654;2023-11-19T15:18:08;12.90;99.90
16907;DHT22;8570;52.380;4.654;2023-11-19T15:23:18;12.90;99.90
16907;DHT22;8570;52.380;4.654;2023-11-19T15:43:02;12.80;99.90
16907;DHT22;8570;52.380;4.654;2023-11-19T15:47:21;12.80;99.90
16907;DHT22;8570;52.380;4.654;2023-11-19T16:04:54;12.60;99.90
16907;DHT22;8570;52.380;4.654;2023-11-19T16:10:36;12.60;99.90
16907;DHT22;8570;52.380;4.654;2023-11-19T16:15:43;12.50;99.90
16907;DHT22;8570;52.380;4.654;2023-11-19T16:20:46;12.60;99.90
16907;DHT22;8570;52.380;4.654;2023-11-19T16:25:52;12.60;99.90
16907;DHT22;8570;52.380;4.654;2023-11-19T16:30:53;12.50;99.90
16907;DHT22;8570;52.380;4.654;2023-11-19T16:35:57;12.50;99.90
16907;DHT22;8570;52.380;4.654;2023-11-19T16:40:59;12.50;99.90
16907;DHT22;8570;52.380;4.654;2023-11-19T16:46:01;12.50;99.90
16907;DHT22;8570;52.380;4.654;2023-11-19T16:51:10;12.50;99.90
16907;DHT22;8570;52.380;4.654;2023-11-19T16:56:14;12.40;99.90
16907;DHT22;8570;52.380;4.654;2023-11-19T17:01:17;12.40;99.90
16907;DHT22;8570;52.380;4.654;2023-11-19T17:06:23;12.30;99.90
16907;DHT22;8570;52.380;4.654;2023-11-19T17:11:26;12.30;99.90
16907;DHT22;8570;52.380;4.654;2023-11-19T17:16:28;12.20;99.90
16907;DHT22;8570;52.380;4.654;2023-11-19T17:21:31;12.20;99.90
16907;DHT22;8570;52.380;4.654;2023-11-19T17:26:33;12.20;99.90
16907;DHT22;8570;52.380;4.654;2023-11-19T17:31:35;12.20;99.90
16907;DHT22;8570;52.380;4.654;2023-11-19T17:36:38;12.20;99.90
16907;DHT22;8570;52.380;4.654;2023-11-19T17:41:43;12.20;99.90
16907;DHT22;8570;52.380;4.654;2023-11-19T17:46:45;12.20;99.90
16907;DHT22;8570;52.380;4.654;2023-11-19T17:51:48;12.20;99.90
16907;DHT22;8570;52.380;4.654;2023-11-19T17:56:50;12.20;99.90
16907;DHT22;8570;52.380;4.654;2023-11-19T18:01:54;12.20;99.90
16907;DHT22;8570;52.380;4.654;2023-11-19T18:06:59;12.20;99.90
16907;DHT22;8570;52.380;4.654;2023-11-19T18:12:01;12.30;99.90
16907;DHT22;8570;52.380;4.654;2023-11-19T18:17:04;12.30;99.90
16907;DHT22;8570;52.380;4.654;2023-11-19T18:22:07;12.30;99.90
16907;DHT22;8570;52.380;4.654;2023-11-19T18:27:10;12.40;99.90
16907;DHT22;8570;52.380;4.654;2023-11-19T18:32:12;12.40;99.90
16907;DHT22;8570;52.380;4.654;2023-11-19T18:37:15;12.40;99.90
16907;DHT22;8570;52.380;4.654;2023-11-19T18:42:17;12.40;99.90
16907;DHT22;8570;52.380;4.654;2023-11-19T18:47:19;12.50;99.90
16907;DHT22;8570;52.380;4.654;2023-11-19T18:52:22;12.50;99.90
16907;DHT22;8570;52.380;4.654;2023-11-19T18:57:24;12.50;99.90
16907;DHT22;8570;52.380;4.654;2023-11-19T19:02:26;12.50;99.90
16907;DHT22;8570;52.380;4.654;2023-11-19T19:07:29;12.60;99.90
16907;DHT22;8570;52.380;4.654;2023-11-19T19:12:33;12.60;99.90
16907;DHT22;8570;52.380;4.654;2023-11-19T19:17:35;12.60;99.90
16907;DHT22;8570;52.380;4.654;2023-11-19T19:22:38;12.60;99.90
16907;DHT22;8570;52.380;4.654;2023-11-19T19:27:42;12.60;99.90
16907;DHT22;8570;52.380;4.654;2023-11-19T19:32:44;12.70;99.90
16907;DHT22;8570;52.380;4.654;2023-11-19T19:37:55;12.70;99.90
16907;DHT22;8570;52.380;4.654;2023-11-19T19:43:00;12.70;99.90
16907;DHT22;8570;52.380;4.654;2023-11-19T19:48:04;12.70;99.90
16907;DHT22;8570;52.380;4.654;2023-11-19T19:53:07;12.70;99.90
16907;DHT22;8570;52.380;4.654;2023-11-19T19:58:11;12.70;99.90
16907;DHT22;8570;52.380;4.654;2023-11-19T20:03:18;12.70;99.90
16907;DHT22;8570;52.380;4.654;2023-11-19T20:08:21;12.80;99.90
16907;DHT22;8570;52.380;4.654;2023-11-19T20:13:23;12.80;99.90
16907;DHT22;8570;52.380;4.654;2023-11-19T20:18:28;12.80;99.90
16907;DHT22;8570;52.380;4.654;2023-11-19T20:23:32;12.80;99.90
16907;DHT22;8570;52.380;4.654;2023-11-19T20:28:34;12.80;99.90
16907;DHT22;8570;52.380;4.654;2023-11-19T20:33:35;12.80;99.90
16907;DHT22;8570;52.380;4.654;2023-11-19T20:38:39;12.80;99.90
16907;DHT22;8570;52.380;4.654;2023-11-19T20:43:41;12.80;99.90
16907;DHT22;8570;52.380;4.654;2023-11-19T20:48:43;12.80;99.90
16907;DHT22;8570;52.380;4.654;2023-11-19T20:53:46;12.80;99.90
16907;DHT22;8570;52.380;4.654;2023-11-19T20:58:48;12.80;99.90
16907;DHT22;8570;52.380;4.654;2023-11-19T21:03:50;12.90;99.90
16907;DHT22;8570;52.380;4.654;2023-11-19T21:08:55;12.90;99.90
16907;DHT22;8570;52.380;4.654;2023-11-19T21:13:57;12.90;99.90
16907;DHT22;8570;52.380;4.654;2023-11-19T21:19:01;12.90;99.90
16907;DHT22;8570;52.380;4.654;2023-11-19T21:24:05;12.90;99.90
16907;DHT22;8570;52.380;4.654;2023-11-19T21:29:11;12.90;99.90
16907;DHT22;8570;52.380;4.654;2023-11-19T21:34:16;12.80;99.90
16907;DHT22;8570;52.380;4.654;2023-11-19T21:39:24;12.80;99.90
16907;DHT22;8570;52.380;4.654;2023-11-19T21:44:28;12.80;99.90
16907;DHT22;8570;52.380;4.654;2023-11-19T21:49:30;12.80;99.90
16907;DHT22;8570;52.380;4.654;2023-11-19T21:54:37;12.90;99.90
16907;DHT22;8570;52.380;4.654;2023-11-19T21:59:41;12.80;99.90
16907;DHT22;8570;52.380;4.654;2023-11-19T22:04:46;12.80;99.90
16907;DHT22;8570;52.380;4.654;2023-11-19T22:09:49;12.80;99.90
16907;DHT22;8570;52.380;4.654;2023-11-19T22:14:51;12.70;99.90
16907;DHT22;8570;52.380;4.654;2023-11-19T22:19:56;12.60;99.90
16907;DHT22;8570;52.380;4.654;2023-11-19T22:24:59;12.50;99.90
16907;DHT22;8570;52.380;4.654;2023-11-19T22:30:08;12.40;99.90
16907;DHT22;8570;52.380;4.654;2023-11-19T22:35:14;12.30;99.90
16907;DHT22;8570;52.380;4.654;2023-11-19T22:40:17;12.30;99.90
16907;DHT22;8570;52.380;4.654;2023-11-19T22:45:19;12.30;99.90
16907;DHT22;8570;52.380;4.654;2023-11-19T22:50:22;12.30;99.90
16907;DHT22;8570;52.380;4.654;2023-11-19T22:55:25;12.30;99.90
16907;DHT22;8570;52.380;4.654;2023-11-19T23:00:27;12.20;99.90
16907;DHT22;8570;52.380;4.654;2023-11-19T23:05:32;12.30;99.90
16907;DHT22;8570;52.380;4.654;2023-11-19T23:10:38;12.30;99.90
16907;DHT22;8570;52.380;4.654;2023-11-19T23:15:40;12.30;99.90
16907;DHT22;8570;52.380;4.654;2023-11-19T23:20:43;12.30;99.90
16907;DHT22;8570;52.380;4.654;2023-11-19T23:25:47;12.30;99.90
16907;DHT22;8570;52.380;4.654;2023-11-19T23:30:49;12.40;99.90
16907;DHT22;8570;52.380;4.654;2023-11-19T23:35:51;12.40;99.90
16907;DHT22;8570;52.380;4.654;2023-11-19T23:40:55;12.40;99.90
16907;DHT22;8570;52.380;4.654;2023-11-19T23:45:59;12.40;99.90
16907;DHT22;8570;52.380;4.654;2023-11-19T23:51:03;12.30;99.90
16907;DHT22;8570;52.380;4.654;2023-11-19T23:56:07;12.30;99.90
